Airfield :
LOGIN :

Register | Disclaimer

   EN    FR    IT 

 










Legend :    VFR   Marginal VFR   IFR   Intensive IFR   Very Intensive IFR
Visi :
Ceiling :
>= 8 km
>= 3000ft
5 to 8 km
1000 to 3000 ft
1500m to 5 km
500 to 1000 ft
800 to 1500m
200 to 500 ft
< 800m
< 200 ft
Symbols :   Thunderstorms  Fog  Heavy snow  Heavy precipitations  Wind > 20 kt
SIGMETs :     Misc.  Thunderstorms  Icing  Turbulence  Mountain Waves  Volcanic Ashes







- Airport Elevation : 1989 ft
- IATA code : KLV


LKKV - Karlovy Vary

CURRENT METAR :
  • 211700Z 00000KT CAVOK 12/09 Q1020

EXPIRED METARs :
  • 211630Z VRB01KT CAVOK 12/08 Q1020
  • 211600Z 27003KT CAVOK 12/08 Q1021
  • 211530Z 26003KT CAVOK 13/08 Q1021
  • 211500Z 26003KT CAVOK 13/08 Q1021
  • 211430Z 26004KT CAVOK 13/07 Q1021

TAF TAF LKKV
Valid from the 21 at 12:00 until the 22 at 18:00 UTC


211100Z 2112/2218 27007KT 9999 SCT023
TEMPO 2112/2116 33014KT 4000 SHRA BKN012
BECMG 2121/2123 VRB02KT 3000 BR SCT007
PROB30
TEMPO 2123/2206 1200 BR BKN003
BECMG 2207/2209 27007KT 9999 SCT023
PROB30
TEMPO 2209/2216 4000 SHRA BKN012
No reported NOTAMs for that airfield.



MET'MAP, your aeronautical weather chart ! - Copyright ORBIFLY December 2007 - Disclaimer

ORBIFLY MET'MAP TEAM :

Programming & Development : Alexandra Zaïnal
Concept & Development : Baudouin d'Aumeries
Co-Development & Prog : Marc-Olivier Méhu
Technical & hardware support : Manuel Goepfert

Contact : metmap@orbifly.com




SOURCES & CREDITS :

   NOAA